Time;durP1;ratioP1;P1;durP2;ratioP2;P2;SDS_P1;SDS_P2;PMS_P1;PMS_P2;Temp;Humidity;BMP_temperature;BMP_pressure;BME280_temperature;BME280_humidity;BME280_pressure;Samples;Min_cycle;Max_cycle;Signal;HPM_P1;HPM_P2
2023/02/25 00:00:09;;;;;;;;;;;;;;;;;;5094299;28;19923;-70
2023/02/25 00:02:35;;;;;;;;;;;;;;;;;;5094473;28;19915;-70
2023/02/25 00:05:05;;;;;;;;;;;;;;;;;;5093862;28;19912;-70
2023/02/25 00:07:31;;;;;;;;;;;;;;;;;;5094302;28;19991;-70
2023/02/25 00:09:57;;;;;;;;;;;;;;;;;;5094476;28;20016;-70
2023/02/25 00:12:23;;;;;;;;;;;;;;;;;;5093768;28;19918;-70
2023/02/25 00:14:49;;;;;;;;;;;;;;;;;;5092859;28;19908;-71
2023/02/25 00:17:15;;;;;;;;;;;;;;;;;;5094124;28;19908;-70
2023/02/25 00:19:41;;;;;;;;;;;;;;;;;;5093645;28;19917;-70
2023/02/25 00:22:07;;;;;;;;;;;;;;;;;;5094260;28;19915;-70
2023/02/25 00:24:33;;;;;;;;;;;;;;;;;;5094012;28;19916;-70
2023/02/25 00:26:59;;;;;;;;;;;;;;;;;;5093594;28;19908;-70
2023/02/25 00:29:25;;;;;;;;;;;;;;;;;;5094258;28;20407;-70
2023/02/25 00:31:51;;;;;;;;;;;;;;;;;;5093987;28;20369;-71
2023/02/25 00:34:17;;;;;;;;;;;;;;;;;;5093482;28;19965;-70
2023/02/25 00:36:43;;;;;;;;;;;;;;;;;;5094423;28;20509;-70
2023/02/25 00:39:10;;;;;;;;;;;;;;;;;;5093186;28;20380;-70
2023/02/25 00:41:36;;;;;;;;;;;;;;;;;;5094064;28;19948;-70
2023/02/25 00:44:02;;;;;;;;;;;;;;;;;;5093786;28;19908;-70
2023/02/25 00:46:28;;;;;;;;;;;;;;;;;;5093360;28;19908;-70
2023/02/25 00:48:54;;;;;;;;;;;;;;;;;;5093799;28;19912;-70
2023/02/25 00:51:20;;;;;;;;;;;;;;;;;;5093793;28;20001;-70
2023/02/25 00:53:46;;;;;;;;;;;;;;;;;;5093345;28;19954;-70
2023/02/25 00:56:15;;;;;;;;;;;;;;;;;;5092430;28;19908;-68
2023/02/25 00:58:41;;;;;;;;;;;;;;;;;;5093834;28;19908;-69
2023/02/25 01:01:07;;;;;;;;;;;;;;;;;;5093910;28;19985;-70
2023/02/25 01:03:33;;;;;;;;;;;;;;;;;;5097633;28;20421;-69
2023/02/25 01:05:59;;;;;;;;;;;;;;;;;;5097688;28;19912;-70
2023/02/25 01:08:25;;;;;;;;;;;;;;;;;;5097192;28;19959;-69
2023/02/25 01:10:52;;;;;;;;;;;;;;;;;;5096271;28;19998;-69
2023/02/25 01:13:18;;;;;;;;;;;;;;;;;;5097509;28;20012;-69
2023/02/25 01:15:44;;;;;;;;;;;;;;;;;;5097032;28;19912;-69
2023/02/25 01:18:10;;;;;;;;;;;;;;;;;;5097449;28;19911;-70
2023/02/25 01:20:36;;;;;;;;;;;;;;;;;;5097323;28;19923;-70
2023/02/25 01:23:01;;;;;;;;;;;;;;;;;;5096938;28;19908;-70
2023/02/25 01:25:28;;;;;;;;;;;;;;;;;;5097309;28;19908;-69
2023/02/25 01:27:54;;;;;;;;;;;;;;;;;;5097529;28;19918;-70
2023/02/25 01:30:20;;;;;;;;;;;;;;;;;;5096794;28;19912;-69
2023/02/25 01:32:46;;;;;;;;;;;;;;;;;;5097079;28;19915;-70
2023/02/25 01:35:12;;;;;;;;;;;;;;;;;;5095577;28;20268;-70
2023/02/25 01:37:38;;;;;;;;;;;;;;;;;;5095867;28;19912;-69
2023/02/25 01:40:04;;;;;;;;;;;;;;;;;;5095417;28;19978;-70
2023/02/25 01:42:30;;;;;;;;;;;;;;;;;;5096602;28;19908;-69
2023/02/25 01:44:56;;;;;;;;;;;;;;;;;;5097003;28;20349;-69
2023/02/25 01:47:21;;;;;;;;;;;;;;;;;;5097082;28;20356;-70
2023/02/25 01:49:47;;;;;;;;;;;;;;;;;;5095341;28;20408;-69
2023/02/25 01:52:13;;;;;;;;;;;;;;;;;;5097213;28;19912;-69
2023/02/25 01:54:39;;;;;;;;;;;;;;;;;;5096761;28;19916;-69
2023/02/25 01:57:05;;;;;;;;;;;;;;;;;;5096352;28;19909;-70
2023/02/25 01:59:31;;;;;;;;;;;;;;;;;;5096804;28;19947;-70
2023/02/25 02:01:57;;;;;;;;;;;;;;;;;;5096558;28;20406;-69
2023/02/25 02:04:23;;;;;;;;;;;;;;;;;;5094843;28;19919;-69
2023/02/25 02:06:49;;;;;;;;;;;;;;;;;;5096434;28;20368;-70
2023/02/25 02:09:15;;;;;;;;;;;;;;;;;;5095191;28;19981;-69
2023/02/25 02:11:41;;;;;;;;;;;;;;;;;;5095557;28;20345;-69
2023/02/25 02:14:07;;;;;;;;;;;;;;;;;;5096398;28;19908;-70
2023/02/25 02:16:33;;;;;;;;;;;;;;;;;;5096558;28;20280;-69
2023/02/25 02:18:59;;;;;;;;;;;;;;;;;;5096028;28;19908;-70
2023/02/25 02:21:25;;;;;;;;;;;;;;;;;;5094860;28;19938;-70
2023/02/25 02:23:51;;;;;;;;;;;;;;;;;;5096142;28;19908;-69
2023/02/25 02:26:17;;;;;;;;;;;;;;;;;;5095727;28;19908;-70
2023/02/25 02:28:43;;;;;;;;;;;;;;;;;;5096129;28;19948;-70
2023/02/25 02:31:09;;;;;;;;;;;;;;;;;;5096038;28;19912;-70
2023/02/25 02:33:35;;;;;;;;;;;;;;;;;;5095659;28;19908;-70
2023/02/25 02:36:01;;;;;;;;;;;;;;;;;;5095947;28;19915;-70
2023/02/25 02:38:27;;;;;;;;;;;;;;;;;;5096019;28;20344;-69
2023/02/25 02:40:53;;;;;;;;;;;;;;;;;;5095206;28;19924;-70
2023/02/25 02:43:19;;;;;;;;;;;;;;;;;;5095858;28;20281;-69
2023/02/25 02:45:45;;;;;;;;;;;;;;;;;;5095380;28;19911;-70
2023/02/25 02:48:11;;;;;;;;;;;;;;;;;;5095752;28;19908;-69
2023/02/25 02:50:36;;;;;;;;;;;;;;;;;;5095707;28;19908;-69
2023/02/25 02:53:02;;;;;;;;;;;;;;;;;;5095219;28;19961;-69
2023/02/25 02:55:29;;;;;;;;;;;;;;;;;;5095660;28;19965;-69
2023/02/25 02:57:55;;;;;;;;;;;;;;;;;;5095578;28;19908;-69
2023/02/25 03:00:27;;;;;;;;;;;;;;;;;;5094944;28;19923;-69
2023/02/25 03:02:53;;;;;;;;;;;;;;;;;;5095598;28;19999;-69
2023/02/25 03:05:18;;;;;;;;;;;;;;;;;;5095335;28;19930;-69
2023/02/25 03:07:44;;;;;;;;;;;;;;;;;;5094980;28;19931;-69
2023/02/25 03:10:10;;;;;;;;;;;;;;;;;;5095311;28;19955;-69
2023/02/25 03:12:37;;;;;;;;;;;;;;;;;;5095177;28;19908;-69
2023/02/25 03:15:03;;;;;;;;;;;;;;;;;;5094835;28;19950;-69
2023/02/25 03:17:29;;;;;;;;;;;;;;;;;;5095172;28;19943;-69
2023/02/25 03:19:55;;;;;;;;;;;;;;;;;;5093636;28;19916;-69
2023/02/25 03:22:21;;;;;;;;;;;;;;;;;;5094616;28;19947;-69
2023/02/25 03:24:47;;;;;;;;;;;;;;;;;;5094196;28;19934;-69
2023/02/25 03:27:13;;;;;;;;;;;;;;;;;;5093762;28;19957;-70
2023/02/25 03:29:39;;;;;;;;;;;;;;;;;;5093224;28;20003;-70
2023/02/25 03:32:05;;;;;;;;;;;;;;;;;;5094942;28;19908;-71
2023/02/25 03:34:31;;;;;;;;;;;;;;;;;;5094909;28;19908;-68
2023/02/25 03:36:57;;;;;;;;;;;;;;;;;;5094482;28;20046;-71
2023/02/25 03:39:23;;;;;;;;;;;;;;;;;;5094662;28;19993;-70
2023/02/25 03:41:49;;;;;;;;;;;;;;;;;;5094539;28;19909;-71
2023/02/25 03:44:15;;;;;;;;;;;;;;;;;;5094972;28;19908;-71
2023/02/25 03:46:41;;;;;;;;;;;;;;;;;;5095049;28;19940;-70
2023/02/25 03:49:07;;;;;;;;;;;;;;;;;;5094297;28;20021;-70
2023/02/25 03:51:33;;;;;;;;;;;;;;;;;;5094813;28;20285;-70
2023/02/25 03:53:59;;;;;;;;;;;;;;;;;;5095138;28;19908;-71
2023/02/25 03:56:25;;;;;;;;;;;;;;;;;;5094352;28;19954;-70
2023/02/25 03:58:51;;;;;;;;;;;;;;;;;;5094416;28;19969;-70
2023/02/25 04:01:17;;;;;;;;;;;;;;;;;;5094368;28;19916;-70
2023/02/25 04:03:43;;;;;;;;;;;;;;;;;;5094154;28;19909;-70
2023/02/25 04:06:09;;;;;;;;;;;;;;;;;;5093085;28;19966;-70
2023/02/25 04:08:35;;;;;;;;;;;;;;;;;;5094629;28;19908;-70
2023/02/25 04:11:01;;;;;;;;;;;;;;;;;;5093882;28;19918;-70
2023/02/25 04:13:26;;;;;;;;;;;;;;;;;;5093017;28;20364;-70
2023/02/25 04:15:52;;;;;;;;;;;;;;;;;;5094171;28;20361;-70
2023/02/25 04:18:18;;;;;;;;;;;;;;;;;;5093797;28;20356;-70
2023/02/25 04:20:44;;;;;;;;;;;;;;;;;;5094190;28;20353;-70
2023/02/25 04:23:10;;;;;;;;;;;;;;;;;;5094060;28;19908;-71
2023/02/25 04:25:36;;;;;;;;;;;;;;;;;;5093712;28;19915;-70
2023/02/25 04:28:02;;;;;;;;;;;;;;;;;;5094115;28;19908;-70
2023/02/25 04:30:28;;;;;;;;;;;;;;;;;;5093904;28;19908;-70
2023/02/25 04:32:54;;;;;;;;;;;;;;;;;;5093683;28;19915;-70
2023/02/25 04:35:20;;;;;;;;;;;;;;;;;;5093773;28;19915;-70
2023/02/25 04:37:46;;;;;;;;;;;;;;;;;;5094003;28;19908;-70
2023/02/25 04:40:12;;;;;;;;;;;;;;;;;;5093255;28;19924;-70
2023/02/25 04:42:38;;;;;;;;;;;;;;;;;;5093939;28;20002;-70
2023/02/25 04:45:04;;;;;;;;;;;;;;;;;;5093821;28;20433;-71
2023/02/25 04:47:31;;;;;;;;;;;;;;;;;;5092277;28;19950;-70
2023/02/25 04:49:57;;;;;;;;;;;;;;;;;;5094259;28;19908;-70
2023/02/25 04:52:23;;;;;;;;;;;;;;;;;;5092120;28;19915;-70
2023/02/25 04:54:48;;;;;;;;;;;;;;;;;;5093815;28;19999;-70
2023/02/25 04:57:14;;;;;;;;;;;;;;;;;;5092445;28;19912;-70
2023/02/25 04:59:40;;;;;;;;;;;;;;;;;;5093217;28;19918;-70
2023/02/25 05:02:06;;;;;;;;;;;;;;;;;;5093706;28;19918;-70
2023/02/25 05:04:33;;;;;;;;;;;;;;;;;;5092537;28;20373;-70
2023/02/25 05:06:59;;;;;;;;;;;;;;;;;;5091981;28;19908;-70
2023/02/25 05:09:25;;;;;;;;;;;;;;;;;;5092483;28;20314;-70
2023/02/25 05:11:51;;;;;;;;;;;;;;;;;;5093618;28;20318;-70
2023/02/25 05:14:17;;;;;;;;;;;;;;;;;;5093158;28;20340;-70
2023/02/25 05:16:43;;;;;;;;;;;;;;;;;;5093573;28;20284;-70
2023/02/25 05:19:09;;;;;;;;;;;;;;;;;;5092343;28;20284;-71
2023/02/25 05:21:34;;;;;;;;;;;;;;;;;;5093113;28;20457;-70
2023/02/25 05:24:00;;;;;;;;;;;;;;;;;;5093444;28;19935;-70
2023/02/25 05:26:26;;;;;;;;;;;;;;;;;;5093361;28;20285;-70
2023/02/25 05:28:52;;;;;;;;;;;;;;;;;;5092947;28;20006;-70
2023/02/25 05:31:18;;;;;;;;;;;;;;;;;;5092083;28;19908;-70
2023/02/25 05:33:44;;;;;;;;;;;;;;;;;;5093468;28;19954;-70
2023/02/25 05:36:10;;;;;;;;;;;;;;;;;;5092992;28;19915;-70
2023/02/25 05:38:36;;;;;;;;;;;;;;;;;;5093429;28;20335;-70
2023/02/25 05:41:02;;;;;;;;;;;;;;;;;;5093126;28;19927;-70
2023/02/25 05:43:28;;;;;;;;;;;;;;;;;;5092903;28;19908;-70
2023/02/25 05:45:54;;;;;;;;;;;;;;;;;;5092027;28;19912;-70
2023/02/25 05:48:20;;;;;;;;;;;;;;;;;;5094484;28;19922;-70
2023/02/25 05:50:49;;;;;;;;;;;;;;;;;;5096433;28;19952;-70
2023/02/25 05:53:15;;;;;;;;;;;;;;;;;;5095562;28;19908;-69
2023/02/25 05:55:41;;;;;;;;;;;;;;;;;;5096437;28;19930;-70
2023/02/25 05:58:07;;;;;;;;;;;;;;;;;;5096745;28;19908;-70
2023/02/25 06:00:32;;;;;;;;;;;;;;;;;;5096565;28;19916;-70
2023/02/25 06:02:58;;;;;;;;;;;;;;;;;;5096222;28;20257;-69
2023/02/25 06:05:24;;;;;;;;;;;;;;;;;;5095350;28;20318;-70
2023/02/25 06:07:50;;;;;;;;;;;;;;;;;;5096526;28;20411;-69
2023/02/25 06:10:16;;;;;;;;;;;;;;;;;;5096047;28;20376;-70
2023/02/25 06:12:42;;;;;;;;;;;;;;;;;;5095107;28;20353;-70
2023/02/25 06:15:08;;;;;;;;;;;;;;;;;;5095129;28;20372;-70
2023/02/25 06:17:34;;;;;;;;;;;;;;;;;;5096254;28;19930;-69
2023/02/25 06:20:00;;;;;;;;;;;;;;;;;;5094953;28;19920;-70
2023/02/25 06:22:26;;;;;;;;;;;;;;;;;;5096249;28;19962;-69
2023/02/25 06:24:52;;;;;;;;;;;;;;;;;;5095925;28;19912;-70
2023/02/25 06:27:19;;;;;;;;;;;;;;;;;;5096175;28;19908;-70
2023/02/25 06:29:45;;;;;;;;;;;;;;;;;;5096102;28;19908;-70
2023/02/25 06:32:11;;;;;;;;;;;;;;;;;;5094584;28;19908;-70
2023/02/25 06:34:37;;;;;;;;;;;;;;;;;;5096575;28;19954;-69
2023/02/25 06:37:03;;;;;;;;;;;;;;;;;;5094847;28;19908;-70
2023/02/25 06:39:29;;;;;;;;;;;;;;;;;;5095379;28;19927;-70
2023/02/25 06:41:54;;;;;;;;;;;;;;;;;;5095915;28;19912;-70
2023/02/25 06:44:20;;;;;;;;;;;;;;;;;;5095871;28;19908;-70
2023/02/25 06:46:46;;;;;;;;;;;;;;;;;;5095574;28;19934;-70
2023/02/25 06:49:12;;;;;;;;;;;;;;;;;;5095800;28;19969;-71
2023/02/25 06:51:38;;;;;;;;;;;;;;;;;;5095751;28;19908;-69
2023/02/25 06:54:04;;;;;;;;;;;;;;;;;;5095270;28;19955;-69
2023/02/25 06:56:30;;;;;;;;;;;;;;;;;;5094369;28;20011;-70
2023/02/25 06:58:58;;;;;;;;;;;;;;;;;;5095270;28;20382;-72
2023/02/25 07:01:24;;;;;;;;;;;;;;;;;;5094057;28;19947;-69
2023/02/25 07:03:50;;;;;;;;;;;;;;;;;;5095453;28;19915;-69
2023/02/25 07:06:16;;;;;;;;;;;;;;;;;;5095037;28;20379;-69
2023/02/25 07:08:43;;;;;;;;;;;;;;;;;;5094028;28;19912;-69
2023/02/25 07:11:09;;;;;;;;;;;;;;;;;;5095896;28;19915;-69
2023/02/25 07:13:35;;;;;;;;;;;;;;;;;;5094858;28;19909;-69
2023/02/25 07:16:01;;;;;;;;;;;;;;;;;;5093979;28;19912;-69
2023/02/25 07:18:27;;;;;;;;;;;;;;;;;;5095178;28;19931;-69
2023/02/25 07:20:53;;;;;;;;;;;;;;;;;;5094615;28;20260;-69
2023/02/25 07:23:19;;;;;;;;;;;;;;;;;;5095361;28;20271;-69
2023/02/25 07:25:45;;;;;;;;;;;;;;;;;;5093751;28;20272;-69
2023/02/25 07:28:11;;;;;;;;;;;;;;;;;;5094684;28;19912;-69
2023/02/25 07:30:37;;;;;;;;;;;;;;;;;;5093619;28;19908;-69
2023/02/25 07:33:03;;;;;;;;;;;;;;;;;;5093540;28;20004;-69
2023/02/25 07:35:29;;;;;;;;;;;;;;;;;;5093199;28;19908;-69
2023/02/25 07:37:56;;;;;;;;;;;;;;;;;;5093519;28;19908;-69
2023/02/25 07:40:21;;;;;;;;;;;;;;;;;;5093114;28;19965;-69
2023/02/25 07:42:47;;;;;;;;;;;;;;;;;;5094288;28;19925;-69
2023/02/25 07:45:13;;;;;;;;;;;;;;;;;;5094617;28;19919;-69
2023/02/25 07:47:39;;;;;;;;;;;;;;;;;;5093277;28;19909;-69
2023/02/25 07:50:05;;;;;;;;;;;;;;;;;;5094224;28;19908;-69
2023/02/25 07:52:31;;;;;;;;;;;;;;;;;;5093193;28;19912;-69
2023/02/25 07:54:57;;;;;;;;;;;;;;;;;;5093149;28;19915;-69
2023/02/25 07:57:23;;;;;;;;;;;;;;;;;;5094009;28;19935;-69
2023/02/25 07:59:49;;;;;;;;;;;;;;;;;;5094606;28;19915;-69
2023/02/25 08:02:15;;;;;;;;;;;;;;;;;;5093980;28;19999;-69
2023/02/25 08:04:41;;;;;;;;;;;;;;;;;;5093028;28;20018;-69
2023/02/25 08:07:07;;;;;;;;;;;;;;;;;;5094321;28;19908;-69
2023/02/25 08:09:33;;;;;;;;;;;;;;;;;;5093674;28;19961;-69
2023/02/25 08:11:59;;;;;;;;;;;;;;;;;;5094138;28;19915;-69
2023/02/25 08:14:24;;;;;;;;;;;;;;;;;;5092849;28;19915;-69
2023/02/25 08:16:52;;;;;;;;;;;;;;;;;;5093757;28;19908;-69
2023/02/25 08:19:18;;;;;;;;;;;;;;;;;;5092701;28;19961;-69
2023/02/25 08:21:44;;;;;;;;;;;;;;;;;;5094078;28;20006;-69
2023/02/25 08:24:10;;;;;;;;;;;;;;;;;;5093650;28;19908;-69
2023/02/25 08:26:36;;;;;;;;;;;;;;;;;;5094026;28;19915;-69
2023/02/25 08:29:01;;;;;;;;;;;;;;;;;;5094593;28;19909;-69
2023/02/25 08:31:27;;;;;;;;;;;;;;;;;;5092191;28;19915;-69
2023/02/25 08:33:53;;;;;;;;;;;;;;;;;;5094099;28;19951;-69
2023/02/25 08:36:19;;;;;;;;;;;;;;;;;;5093916;28;19908;-69
2023/02/25 08:38:45;;;;;;;;;;;;;;;;;;5093704;28;19953;-70
2023/02/25 08:41:11;;;;;;;;;;;;;;;;;;5093835;28;19921;-70
2023/02/25 08:43:37;;;;;;;;;;;;;;;;;;5092716;28;19995;-69
2023/02/25 08:46:05;;;;;;;;;;;;;;;;;;5092237;28;19914;-69
2023/02/25 08:48:31;;;;;;;;;;;;;;;;;;5093786;28;19908;-69
2023/02/25 08:50:56;;;;;;;;;;;;;;;;;;5093740;28;19916;-69
2023/02/25 08:53:22;;;;;;;;;;;;;;;;;;5093383;28;19908;-70
2023/02/25 08:55:49;;;;;;;;;;;;;;;;;;5093711;28;19908;-70
2023/02/25 08:58:15;;;;;;;;;;;;;;;;;;5093667;28;19916;-70
2023/02/25 09:00:41;;;;;;;;;;;;;;;;;;5093244;28;19916;-69
2023/02/25 09:03:07;;;;;;;;;;;;;;;;;;5092343;28;19908;-70
2023/02/25 09:05:33;;;;;;;;;;;;;;;;;;5093274;28;20011;-69
2023/02/25 09:07:59;;;;;;;;;;;;;;;;;;5092335;28;19909;-69
2023/02/25 09:10:25;;;;;;;;;;;;;;;;;;5093734;28;19908;-70
2023/02/25 09:12:53;;;;;;;;;;;;;;;;;;5091990;28;19908;-70
2023/02/25 09:15:20;;;;;;;;;;;;;;;;;;5093935;28;19915;-70
2023/02/25 09:17:46;;;;;;;;;;;;;;;;;;5092295;28;19908;-70
2023/02/25 09:20:12;;;;;;;;;;;;;;;;;;5093081;28;20291;-70
2023/02/25 09:22:39;;;;;;;;;;;;;;;;;;5095094;28;20326;-70
2023/02/25 09:25:05;;;;;;;;;;;;;;;;;;5097445;28;20349;-70
2023/02/25 09:27:31;;;;;;;;;;;;;;;;;;5097170;28;19947;-70
2023/02/25 09:29:56;;;;;;;;;;;;;;;;;;5097238;28;19943;-70
2023/02/25 09:32:22;;;;;;;;;;;;;;;;;;5097306;28;19951;-70
2023/02/25 09:34:48;;;;;;;;;;;;;;;;;;5096824;28;19908;-70
2023/02/25 09:37:14;;;;;;;;;;;;;;;;;;5095856;28;20006;-70
2023/02/25 09:39:43;;;;;;;;;;;;;;;;;;5097070;28;19924;-70
2023/02/25 09:42:09;;;;;;;;;;;;;;;;;;5096758;28;19908;-69
2023/02/25 09:44:35;;;;;;;;;;;;;;;;;;5097243;28;20431;-70
2023/02/25 09:47:01;;;;;;;;;;;;;;;;;;5095745;28;19947;-70
2023/02/25 09:49:27;;;;;;;;;;;;;;;;;;5096494;28;19951;-70
2023/02/25 09:51:54;;;;;;;;;;;;;;;;;;5095525;28;19923;-70
2023/02/25 09:54:20;;;;;;;;;;;;;;;;;;5095559;28;20338;-70
2023/02/25 09:56:46;;;;;;;;;;;;;;;;;;5096433;28;19908;-70
2023/02/25 09:59:11;;;;;;;;;;;;;;;;;;5095458;28;19915;-70
2023/02/25 10:01:38;;;;;;;;;;;;;;;;;;5094852;28;19965;-70
2023/02/25 10:04:04;;;;;;;;;;;;;;;;;;5095341;28;19955;-69
2023/02/25 10:06:29;;;;;;;;;;;;;;;;;;5095293;28;19960;-69
2023/02/25 10:08:56;;;;;;;;;;;;;;;;;;5096131;28;19908;-69
2023/02/25 10:11:21;;;;;;;;;;;;;;;;;;5096515;28;19985;-70
2023/02/25 10:13:47;;;;;;;;;;;;;;;;;;5095253;28;20383;-69
2023/02/25 10:16:13;;;;;;;;;;;;;;;;;;5096371;28;20437;-70
2023/02/25 10:18:39;;;;;;;;;;;;;;;;;;5096401;28;20287;-70
2023/02/25 10:21:06;;;;;;;;;;;;;;;;;;5096290;28;20372;-70
2023/02/25 10:23:34;;;;;;;;;;;;;;;;;;5096307;28;19908;-71
2023/02/25 10:26:01;;;;;;;;;;;;;;;;;;5096299;28;19951;-71
2023/02/25 10:28:27;;;;;;;;;;;;;;;;;;5094964;28;20292;-70
2023/02/25 10:30:56;;;;;;;;;;;;;;;;;;5095718;28;19915;-70
2023/02/25 10:33:23;;;;;;;;;;;;;;;;;;5094482;28;19915;-71
2023/02/25 10:35:49;;;;;;;;;;;;;;;;;;5094750;28;19908;-71
2023/02/25 10:38:15;;;;;;;;;;;;;;;;;;5094432;28;19908;-71
2023/02/25 10:40:41;;;;;;;;;;;;;;;;;;5094348;28;19920;-71
2023/02/25 10:43:07;;;;;;;;;;;;;;;;;;5095910;28;19912;-71
2023/02/25 10:45:33;;;;;;;;;;;;;;;;;;5094092;28;19931;-71
2023/02/25 10:49:05;;;;;;;;;;;;;;;;;;5091624;27;19912;-70
2023/02/25 10:52:30;;;;;;;;;;;;;;;;;;5111409;27;19916;-72
2023/02/25 10:54:56;;;;;;;;;;;;;;;;;;5111562;28;19998;-71
2023/02/25 10:57:21;;;;;;;;;;;;;;;;;;5110179;28;19908;-71
2023/02/25 10:59:49;;;;;;;;;;;;;;;;;;5111154;28;19908;-71
2023/02/25 11:02:15;;;;;;;;;;;;;;;;;;5111256;28;19969;-71
2023/02/25 11:06:52;;;;;;;;;;;;;;;;;;5111286;27;19913;-71
2023/02/25 11:10:03;;;;;;;;;;;;;;;;;;5112018;27;20287;-71
2023/02/25 11:13:03;;;;;;;;;;;;;;;;;;5070839;28;19964;-71
2023/02/25 11:15:29;;;;;;;;;;;;;;;;;;5071109;28;20255;-71
2023/02/25 11:17:55;;;;;;;;;;;;;;;;;;5069823;28;19916;-71
2023/02/25 11:20:22;;;;;;;;;;;;;;;;;;5070638;28;20300;-71
2023/02/25 11:22:48;;;;;;;;;;;;;;;;;;5070947;28;19948;-71
2023/02/25 11:26:55;;;;;;;;;;;;;;;;;;5111614;27;19912;-71
2023/02/25 11:29:22;;;;;;;;;;;;;;;;;;5111653;28;19912;-71
2023/02/25 11:31:47;;;;;;;;;;;;;;;;;;5111791;28;19944;-71
2023/02/25 11:34:13;;;;;;;;;;;;;;;;;;5111203;28;19946;-71
2023/02/25 11:36:39;;;;;;;;;;;;;;;;;;5110228;28;20310;-71
2023/02/25 11:39:05;;;;;;;;;;;;;;;;;;5111432;28;19912;-71
2023/02/25 11:42:40;;;;;;;;;;;;;;;;;;5112272;27;19916;-71
2023/02/25 11:45:06;;;;;;;;;;;;;;;;;;5111724;28;20349;-71
2023/02/25 11:47:32;;;;;;;;;;;;;;;;;;5111162;28;19912;-71
2023/02/25 11:49:58;;;;;;;;;;;;;;;;;;5111529;28;20322;-71
2023/02/25 11:52:25;;;;;;;;;;;;;;;;;;5110101;28;20328;-71
2023/02/25 11:55:14;;;;;;;;;;;;;;;;;;5111591;27;19916;-71
2023/02/25 12:00:04;;;;;;;;;;;;;;;;;;5092127;27;19922;-71
2023/02/25 12:02:30;;;;;;;;;;;;;;;;;;5090793;28;19991;-71
2023/02/25 12:04:56;;;;;;;;;;;;;;;;;;5091404;28;19908;-71
2023/02/25 12:08:00;;;;;;;;;;;;;;;;;;5111873;27;19916;-69
2023/02/25 12:10:26;;;;;;;;;;;;;;;;;;5109879;28;20018;-70
2023/02/25 12:15:25;;;;;;;;;;;;;;;;;;5173734;27;19911;-69
2023/02/25 12:17:51;;;;;;;;;;;;;;;;;;5173677;27;20406;-70
2023/02/25 12:20:52;;;;;;;;;;;;;;;;;;5091911;27;19938;-71
2023/02/25 12:25:52;;;;;;;;;;;;;;;;;;5111875;27;19916;-71
2023/02/25 12:28:18;;;;;;;;;;;;;;;;;;5111869;28;19958;-71
2023/02/25 12:30:44;;;;;;;;;;;;;;;;;;5111154;28;19912;-71
2023/02/25 12:36:24;;;;;;;;;;;;;;;;;;5112256;27;19916;-71
2023/02/25 12:38:50;;;;;;;;;;;;;;;;;;5111743;28;20006;-70
2023/02/25 12:41:16;;;;;;;;;;;;;;;;;;5111578;28;19908;-71
2023/02/25 12:46:03;;;;;;;;;;;;;;;;;;5091447;28;19916;-71
2023/02/25 12:50:33;;;;;;;;;;;;;;;;;;5111446;27;19922;-71
2023/02/25 12:54:37;;;;;;;;;;;;;;;;;;5092070;28;20287;-71
2023/02/25 12:57:03;;;;;;;;;;;;;;;;;;5091723;28;19912;-71
2023/02/25 12:59:29;;;;;;;;;;;;;;;;;;5090843;28;20003;-71
2023/02/25 13:04:06;;;;;;;;;;;;;;;;;;5112153;27;19916;-71
2023/02/25 13:06:32;;;;;;;;;;;;;;;;;;5111387;28;20452;-71
2023/02/25 13:10:56;;;;;;;;;;;;;;;;;;5111858;27;20383;-71
2023/02/25 13:15:05;;;;;;;;;;;;;;;;;;5112435;27;19912;-71
2023/02/25 13:17:33;;;;;;;;;;;;;;;;;;5111680;28;19998;-71
2023/02/25 13:22:42;;;;;;;;;;;;;;;;;;5071414;28;19925;-71
2023/02/25 13:26:30;;;;;;;;;;;;;;;;;;5111289;27;19916;-69
2023/02/25 13:31:13;;;;;;;;;;;;;;;;;;5153061;27;20350;-69
2023/02/25 13:33:39;;;;;;;;;;;;;;;;;;5152641;27;19959;-69
2023/02/25 13:36:05;;;;;;;;;;;;;;;;;;5152579;27;20328;-69
2023/02/25 13:38:31;;;;;;;;;;;;;;;;;;5134153;27;20467;-69
2023/02/25 13:40:57;;;;;;;;;;;;;;;;;;5152426;27;20371;-69
2023/02/25 13:44:32;;;;;;;;;;;;;;;;;;5173719;27;20375;-71
2023/02/25 13:47:31;;;;;;;;;;;;;;;;;;5090923;28;19923;-71
2023/02/25 13:53:11;;;;;;;;;;;;;;;;;;5111856;27;19916;-71
2023/02/25 13:55:37;;;;;;;;;;;;;;;;;;5111242;28;20002;-71
2023/02/25 13:58:04;;;;;;;;;;;;;;;;;;5111548;28;19908;-71
2023/02/25 14:00:30;;;;;;;;;;;;;;;;;;5111625;28;20007;-71
2023/02/25 14:07:33;;;;;;;;;;;;;;;;;;5112059;27;19916;-71
2023/02/25 14:12:37;;;;;;;;;;;;;;;;;;5092013;27;19917;-71
2023/02/25 14:15:03;;;;;;;;;;;;;;;;;;5090921;28;20465;-71
2023/02/25 14:17:29;;;;;;;;;;;;;;;;;;5091271;28;19909;-70
2023/02/25 14:19:55;;;;;;;;;;;;;;;;;;5091132;28;19909;-71
2023/02/25 14:22:21;;;;;;;;;;;;;;;;;;5090746;28;19919;-71
2023/02/25 14:25:30;;;;;;;;;;;;;;;;;;5091647;27;19923;-71
2023/02/25 14:27:56;;;;;;;;;;;;;;;;;;5091257;28;20014;-71
2023/02/25 14:30:23;;;;;;;;;;;;;;;;;;5090843;28;19913;-71
2023/02/25 14:32:49;;;;;;;;;;;;;;;;;;5091209;28;19908;-71
2023/02/25 14:38:24;;;;;;;;;;;;;;;;;;5091379;27;20304;-71
2023/02/25 14:40:50;;;;;;;;;;;;;;;;;;5091392;28;20011;-71
2023/02/25 14:44:49;;;;;;;;;;;;;;;;;;5091009;28;19916;-71
2023/02/25 14:47:15;;;;;;;;;;;;;;;;;;5091303;28;20019;-71
2023/02/25 14:49:41;;;;;;;;;;;;;;;;;;5091261;28;19909;-71
2023/02/25 14:53:27;;;;;;;;;;;;;;;;;;5132130;27;20361;-70
2023/02/25 14:55:53;;;;;;;;;;;;;;;;;;5132199;28;20013;-71
2023/02/25 15:00:41;;;;;;;;;;;;;;;;;;5111990;27;20299;-69
2023/02/25 15:03:07;;;;;;;;;;;;;;;;;;5111494;28;20003;-71
2023/02/25 15:07:25;;;;;;;;;;;;;;;;;;5112058;27;19913;-70
2023/02/25 15:09:51;;;;;;;;;;;;;;;;;;5111896;28;20038;-70
2023/02/25 15:14:45;;;;;;;;;;;;;;;;;;5152914;27;19911;-71
2023/02/25 15:17:11;;;;;;;;;;;;;;;;;;5152880;27;20017;-70
2023/02/25 15:19:37;;;;;;;;;;;;;;;;;;5133821;27;20348;-71
2023/02/25 15:24:01;;;;;;;;;;;;;;;;;;5112457;27;19922;-71
2023/02/25 15:26:28;;;;;;;;;;;;;;;;;;5110005;28;19999;-71
2023/02/25 15:28:54;;;;;;;;;;;;;;;;;;5111792;28;19954;-71
2023/02/25 15:31:20;;;;;;;;;;;;;;;;;;5110796;28;20315;-71
2023/02/25 15:33:46;;;;;;;;;;;;;;;;;;5109832;28;20346;-71
2023/02/25 15:36:12;;;;;;;;;;;;;;;;;;5112016;28;20276;-71
2023/02/25 15:38:38;;;;;;;;;;;;;;;;;;5110164;28;19916;-71
2023/02/25 15:41:04;;;;;;;;;;;;;;;;;;5110953;28;19908;-71
2023/02/25 15:43:30;;;;;;;;;;;;;;;;;;5111247;28;19916;-71
2023/02/25 15:45:56;;;;;;;;;;;;;;;;;;5111293;28;19915;-70
2023/02/25 15:48:22;;;;;;;;;;;;;;;;;;5109621;28;19908;-71
2023/02/25 15:50:48;;;;;;;;;;;;;;;;;;5109892;28;19912;-70
2023/02/25 15:53:14;;;;;;;;;;;;;;;;;;5109847;28;19951;-71
2023/02/25 15:55:40;;;;;;;;;;;;;;;;;;5111178;28;20283;-71
2023/02/25 15:58:06;;;;;;;;;;;;;;;;;;5109866;28;19908;-71
2023/02/25 16:00:32;;;;;;;;;;;;;;;;;;5110563;28;19977;-71
2023/02/25 16:02:58;;;;;;;;;;;;;;;;;;5110714;28;19939;-71
2023/02/25 16:05:24;;;;;;;;;;;;;;;;;;5109460;28;19909;-71
2023/02/25 16:07:50;;;;;;;;;;;;;;;;;;5110488;28;19908;-71
2023/02/25 16:10:16;;;;;;;;;;;;;;;;;;5110871;28;19922;-71
2023/02/25 16:12:42;;;;;;;;;;;;;;;;;;5111084;28;19953;-71
2023/02/25 16:15:08;;;;;;;;;;;;;;;;;;5110370;28;20368;-71
2023/02/25 16:17:34;;;;;;;;;;;;;;;;;;5109448;28;19908;-71
2023/02/25 16:20:00;;;;;;;;;;;;;;;;;;5110804;28;19908;-71
2023/02/25 16:22:26;;;;;;;;;;;;;;;;;;5108618;28;19927;-70
2023/02/25 16:24:52;;;;;;;;;;;;;;;;;;5109294;28;20004;-71
2023/02/25 16:27:17;;;;;;;;;;;;;;;;;;5110798;28;19934;-71
2023/02/25 16:29:43;;;;;;;;;;;;;;;;;;5109934;28;19908;-71
2023/02/25 16:32:10;;;;;;;;;;;;;;;;;;5110323;28;20003;-71
2023/02/25 16:34:37;;;;;;;;;;;;;;;;;;5099601;28;19909;-70
2023/02/25 16:37:02;;;;;;;;;;;;;;;;;;5096263;28;19999;-70
2023/02/25 16:39:28;;;;;;;;;;;;;;;;;;5096781;28;19979;-70
2023/02/25 16:41:54;;;;;;;;;;;;;;;;;;5096546;28;19912;-70
2023/02/25 16:44:20;;;;;;;;;;;;;;;;;;5094722;28;19942;-70
2023/02/25 16:46:46;;;;;;;;;;;;;;;;;;5096811;28;20372;-70
2023/02/25 16:49:13;;;;;;;;;;;;;;;;;;5096509;28;19908;-70
2023/02/25 16:51:40;;;;;;;;;;;;;;;;;;5096086;28;19951;-70
2023/02/25 16:54:06;;;;;;;;;;;;;;;;;;5096204;28;19915;-70
2023/02/25 16:56:32;;;;;;;;;;;;;;;;;;5096401;28;19915;-70
2023/02/25 16:58:58;;;;;;;;;;;;;;;;;;5096618;28;19908;-71
2023/02/25 17:01:24;;;;;;;;;;;;;;;;;;5096296;28;19908;-70
2023/02/25 17:03:50;;;;;;;;;;;;;;;;;;5095753;28;19916;-70
2023/02/25 17:06:16;;;;;;;;;;;;;;;;;;5096126;28;19908;-70
2023/02/25 17:08:42;;;;;;;;;;;;;;;;;;5096386;28;19962;-70
2023/02/25 17:11:12;;;;;;;;;;;;;;;;;;5095749;28;19915;-70
2023/02/25 17:13:38;;;;;;;;;;;;;;;;;;5096142;28;19908;-70
2023/02/25 17:16:04;;;;;;;;;;;;;;;;;;5094610;28;19915;-70
2023/02/25 17:18:31;;;;;;;;;;;;;;;;;;5095899;28;19961;-70
2023/02/25 17:20:57;;;;;;;;;;;;;;;;;;5094649;28;19908;-70
2023/02/25 17:23:23;;;;;;;;;;;;;;;;;;5094401;28;20433;-70
2023/02/25 17:25:51;;;;;;;;;;;;;;;;;;5094206;28;19954;-70
2023/02/25 17:28:17;;;;;;;;;;;;;;;;;;5095683;28;19915;-70
2023/02/25 17:30:46;;;;;;;;;;;;;;;;;;5095809;28;20391;-70
2023/02/25 17:33:12;;;;;;;;;;;;;;;;;;5093847;28;19908;-70
2023/02/25 17:35:38;;;;;;;;;;;;;;;;;;5095702;28;20284;-70
2023/02/25 17:38:04;;;;;;;;;;;;;;;;;;5094363;28;20295;-70
2023/02/25 17:40:30;;;;;;;;;;;;;;;;;;5095012;28;20307;-70
2023/02/25 17:42:56;;;;;;;;;;;;;;;;;;5095451;28;19916;-70